RJTA(METAR)
02/20 20:00
METAR RJTA 201100Z 08007KT 040V100 9999 FEW020 BKN030 14/08 Q1011
RMK 1CU020 7CU030 A2986=
戻る
トップページへ戻る
IMOC Co,.Ltd.